Weather observations for the past three days for
Elbow Lake Municipal Airport
Imperial (Metric)
Date Time (cdt) Wind (mph) Vis. (mi.) Weather Sky Cond. Temperature (ºF) Relative Humidity Wind Chill (°F) Heat Index (°F) Pressure Precipitation (in)
Air Dwpt 6 hour altimeter (in) sea level (mb) 1 hr 3 hr 6 hr
Max. Min.
05 21:35 E 10 10.00 Fair CLR 76.3 67.8 75% 78 30.01 0.0
05 21:15 E 10 10.00 Fair CLR 76.8 68 74% 78 30.01 0.0
05 20:55 E 10 10.00 Fair CLR 77 68.2 74% 79 30 0.0
05 20:35 E 8 10.00 Fair CLR 77.9 68.9 74% 80 30 0.0
05 20:15 SE 8 10.00 Fair CLR 78.8 68.9 72% 81 30 0.0
05 19:55 SE 6 10.00 Fair CLR 80.1 68.4 68% 83 30 0.0
05 19:35 SE 7 10.00 Fair CLR 81 68.2 65% 84 30 0.0
05 19:15 SE 7 10.00 Fair CLR 81.9 67.6 62% 85 29.98 0.0
05 18:55 SE 10 10.00 Fair CLR 83.3 67.3 85.5 79 59% 86 29.96 0.0
05 18:35 SE 8 10.00 Fair CLR 84.2 67.1 57% 87 29.96 0.0
05 18:15 SE 12 10.00 Fair CLR 84.2 67.6 58% 87 29.96 0.0
05 17:55 SE 9 G 20 10.00 Fair CLR 84.4 67.6 57% 87 29.95 0.0
05 17:35 SE 13 10.00 Fair CLR 85.3 66.6 54% 88 29.95 0.0
05 17:15 E 13 G 18 10.00 Fair CLR 84.9 67.5 56% 88 29.94 0.0
05 16:55 E 14 G 20 10.00 Fair CLR 84.4 67.1 56% 87 29.94 0.0
05 16:35 E 17 G 21 10.00 Fair CLR 84.6 66.2 54% 87 29.95 0.0
05 16:15 SE 13 G 20 10.00 Fair CLR 84.4 65.7 53% 86 29.96 0.0
05 15:55 E 15 G 18 10.00 Fair CLR 83.7 65.3 54% 86 29.97 0.0
05 15:35 SE 13 G 16 10.00 Fair CLR 84.2 65.5 53% 86 29.98 0.0
05 15:15 E 8 10.00 Fair CLR 84 65.5 54% 86 30 0.0
05 14:55 E 9 10.00 Fair CLR 82.9 66.2 57% 85 30.01 0.0
05 12:55 E 13 10.00 Fair CLR 78.8 66.7 78.8 64.8 67% 81 30 0.0
05 12:35 SE 10 10.00 Fair CLR 77.9 67.8 71% 80 30.01 0.0
05 12:15 E 13 10.00 Fair CLR 76.6 67.5 73% 78 30.02 0.0
05 11:55 SE 12 G 16 10.00 Fair CLR 76.5 67.6 74% 78 30.03 0.0
05 11:35 E 12 10.00 Fair CLR 75 67.6 78% 76 30.04 0.0
05 11:15 E 12 10.00 Fair CLR 74.3 67.3 79% 30.03 0.0
05 10:55 E 10 10.00 Partly Cloudy SCT009 74.1 67.1 79% 30.03 0.0
05 10:35 E 13 10.00 Mostly Cloudy BKN009 72.7 66.2 80% 30.03 0.0
05 10:15 E 13 G 17 10.00 Overcast OVC009 72 65.7 81% 30.03 0.0
05 09:55 SE 13 10.00 Overcast OVC011 70 64.6 83% 30.03 0.0
05 09:35 E 14 G 18 10.00 Overcast OVC011 69.4 65.1 86% 30.04 0.0
05 09:15 E 14 10.00 Overcast OVC013 68 64.6 89% 30.04 0.0
05 08:55 E 15 10.00 Overcast OVC013 67.1 64.6 92% 30.03 0.0
05 08:35 E 15 10.00 Overcast SCT005 OVC015 66.6 64.9 95% 30.03 0.0
05 08:15 E 9 10.00 Overcast OVC003 65.8 64.4 95% 30.02 0.0
05 07:55 E 14 10.00 Overcast OVC003 65.5 63.9 95% 30.02 0.0
05 07:35 SE 8 10.00 Overcast OVC003 65.5 63.7 94% 30.02 0.0
05 07:15 E 8 7.00 Overcast OVC003 65.3 63.5 94% 30 0.0
05 06:55 E 9 7.00 Overcast OVC003 65.3 63.5 68.9 64.6 94% 30 0.0
05 06:35 E 9 7.00 Overcast OVC003 65.3 63.5 94% 30 0.0
05 06:15 E 10 10.00 Overcast OVC003 64.9 63.5 95% 30 0.0
05 05:55 E 9 10.00 Mostly Cloudy BKN005 64.8 63.1 95% 30 0.0
05 05:35 SE 6 10.00 Partly Cloudy SCT005 64.8 63.1 95% 30 0.0
05 05:15 SE 8 10.00 Fair CLR 65.5 63.7 94% 29.99 0.0
05 04:55 E 9 10.00 Fair CLR 65.5 63.9 95% 29.99 0.0
05 04:35 SE 7 10.00 Fair CLR 65.7 64.2 95% 29.99 0.0
05 04:15 E 7 10.00 Fair CLR 65.8 64.2 95% 29.97 0.0
05 03:55 E 10 10.00 Partly Cloudy SCT004 66.2 64.4 94% 29.97 0.0
05 03:35 E 9 10.00 Overcast OVC004 66.6 64.9 95% 29.97 0.0
05 03:15 E 14 G 21 10.00 Overcast OVC004 67.1 65.3 94% 29.97 0.0
05 02:55 E 12 G 21 10.00 Overcast OVC004 67.3 65.5 94% 29.98 0.0
05 02:35 E 12 10.00 Mostly Cloudy BKN004 66.7 65.3 95% 29.99 0.0
05 02:15 E 10 10.00 Fair CLR 67.1 65.5 95% 29.99 0.0
05 01:55 E 12 10.00 Fair CLR 67.6 66 95% 29.99 0.0
05 01:35 SE 9 10.00 Fair CLR 68 66.2 94% 30 0.0
05 01:15 E 10 10.00 Fair CLR 68.2 66.6 95% 30 0.0
05 00:55 E 10 10.00 Fair CLR 68.9 67.1 82 68.9 94% 30 0.0
05 00:35 E 10 10.00 Fair CLR 69.6 67.5 93% 30 0.0
05 00:15 E 14 10.00 Fair CLR 70.2 67.8 92% 30 0.0
04 23:55 E 9 10.00 Fair CLR 70.7 68 91% 30 0.0
04 23:35 E 9 10.00 Fair CLR 71.1 68.4 91% 29.99 0.0
04 23:15 E 8 10.00 Fair CLR 71.8 68.7 90% 29.99 0.0
04 22:55 E 12 10.00 Fair CLR 72.5 68.4 87% 29.99 0.0
04 22:35 E 8 10.00 Fair CLR 73.4 68 83% 29.99 0.0
04 22:15 E 8 10.00 Fair CLR 73.9 68 82% 29.99 0.0
04 21:55 E 8 10.00 Fair CLR 74.8 67.8 79% 29.99 0.0
04 21:35 E 7 10.00 Fair CLR 75.4 67.6 77% 76 29.98 0.0
04 21:15 E 6 10.00 Fair CLR 76.1 67.5 75% 78 29.98 0.0
04 20:55 E 7 10.00 Fair CLR 76.6 67.3 73% 78 29.96 0.0
04 20:35 E 5 10.00 Fair CLR 77.4 67.6 72% 79 29.96 0.0
04 20:15 E 9 10.00 Fair CLR 78.6 67.5 69% 81 29.94 0.0
04 19:55 E 9 10.00 Fair CLR 79.9 67.6 66% 82 29.93 0.0
04 19:35 E 9 10.00 Fair CLR 81 67.1 63% 83 29.94 0.0
04 19:15 E 8 10.00 Fair CLR 81.5 66.9 61% 84 29.94 0.0
04 18:55 E 8 10.00 Fair CLR 82 67.3 86.2 78.8 61% 85 29.94 0.0
04 18:35 E 7 10.00 Fair CLR 82.4 67.5 61% 85 29.95 0.0
04 18:15 SE 7 10.00 Fair CLR 83.5 66.7 57% 86 29.95 0.0
04 17:55 E 8 10.00 Fair CLR 85.5 67.1 54% 88 29.94 0.0
04 17:35 E 6 10.00 Fair CLR 86 67.5 54% 89 29.93 0.0
04 17:15 NE 8 10.00 Fair CLR 85.6 67.1 54% 88 29.93 0.0
04 16:55 E 6 10.00 Fair CLR 86 67.5 54% 89 29.93 0.0
04 16:35 E 3 10.00 Fair CLR 85.8 66.4 52% 88 29.94 0.0
04 16:15 E 5 10.00 Fair CLR 86 66.2 52% 88 29.94 0.0
04 15:55 E 5 10.00 Fair CLR 85.5 66 52% 88 29.95 0.0
04 15:35 E 3 10.00 Fair CLR 85.1 66.9 55% 88 29.94 0.0
04 15:15 E 8 10.00 Fair CLR 84.6 67.3 56% 87 29.95 0.0
04 14:55 E 10 10.00 Fair CLR 83.5 67.1 58% 86 29.95 0.0
04 14:35 E 8 10.00 Fair CLR 83.5 67.5 59% 86 29.94 0.0
04 14:15 E 9 10.00 Fair CLR 82.6 68 61% 86 29.95 0.0
04 13:55 NE 5 10.00 Fair CLR 81.5 68.2 64% 84 29.95 0.0
04 13:35 E 5 10.00 Fair CLR 80.8 68 65% 84 29.95 0.0
04 13:15 E 7 10.00 Fair CLR 80.1 69.4 70% 83 29.95 0.0
04 12:35 NE 8 10.00 Partly Cloudy SCT012 76.6 69.1 78% 78 29.96 0.0
04 12:15 NE 8 10.00 Overcast OVC010 75 68.5 80% 76 29.96 0.0
04 11:55 E 7 10.00 Overcast OVC008 72.9 68.2 85% 29.96 0.0
04 11:35 E 6 10.00 Overcast OVC008 72 68.2 88% 29.95 0.0
04 11:15 NE 7 10.00 Overcast OVC006 70 68.2 94% 29.95 0.0
04 10:55 NE 6 10.00 Overcast OVC004 68.2 66.6 95% 29.95 0.0
04 10:35 NE 9 7.00 Overcast OVC002 68 66.2 94% 29.94 0.0
04 10:15 NE 6 7.00 Overcast OVC002 67.5 65.8 95% 29.94 0.0
04 09:55 N 9 1.00 Fog/Mist OVC002 67.1 65.3 94% 29.93 0.0
04 09:35 N 5 0.25 Fog OVC002 67.1 65.3 94% 29.93 0.0
04 09:15 N 6 0.25 Fog OVC002 66.7 65.1 95% 29.92 0.0
04 08:55 N 7 0.25 Fog OVC002 66.2 64.6 95% 29.92 0.0
04 08:35 N 5 0.15 Fog OVC002 65.7 64 95% 29.92 0.0
04 08:15 N 5 0.15 Fog OVC002 66.4 64.6 94% 29.91 0.0
04 07:55 NE 6 0.15 Fog OVC002 65.8 64.4 95% 29.91 0.0
04 07:35 NE 5 0.15 Fog OVC002 66.2 64.4 94% 29.9 0.0
04 07:15 NE 7 0.15 Fog OVC002 65.8 64.4 95% 29.89 0.0
04 06:55 NE 6 0.25 Fog OVC002 65.5 63.9 76.1 65.3 95% 29.88 0.0
04 06:35 E 3 0.25 Fog OVC002 65.3 63.7 95% 29.88 0.0
04 06:15 Calm 0.25 Fog OVC002 65.5 63.9 95% 29.88 0.0
04 05:55 E 7 0.50 Fog OVC002 65.5 63.9 95% 29.86 0.0
04 05:35 E 6 1.75 Fog/Mist OVC002 65.5 63.9 95% 29.86 0.0
04 05:15 E 8 10.00 Partly Cloudy SCT004 65.8 64.2 95% 29.86 0.0
04 04:55 E 7 10.00 Fair CLR 66.2 64.4 94% 29.85 0.0
04 04:35 E 6 10.00 Fair CLR 66.4 64.8 95% 29.85 0.0
04 04:15 E 7 10.00 Fair CLR 67.1 65.3 94% 29.84 0.0
04 03:55 E 7 10.00 Fair CLR 68 66 93% 29.84 0.0
04 03:35 E 7 10.00 Fair CLR 69.3 67.5 94% 29.83 0.0
04 03:15 E 8 10.00 Fair CLR 70 68.2 94% 29.83 0.0
04 02:55 NE 7 10.00 Fair CLR 70.7 69.1 95% 29.81 0.0
04 02:35 NE 3 10.00 Fair CLR 72.7 70.9 94% 29.81 0.0
04 02:15 NE 5 10.00 Fair CLR 73.4 71.4 94% 29.81 0.0
04 01:55 Calm 10.00 Fair CLR 75.2 72.5 91% 74 29.81 0.0
04 01:35 E 6 10.00 Fair CLR 75.7 72.7 90% 75 29.79 0.0
04 01:15 E 5 10.00 Fair CLR 75.7 72.5 90% 76 29.79 0.0
04 00:55 E 5 10.00 Fair CLR 75.7 72.5 87.1 75.4 90% 76 29.79 0.0
04 00:35 E 5 10.00 Fair CLR 75.6 72.1 89% 75 29.78 0.0
04 00:15 E 6 10.00 Fair CLR 76.5 71.1 83% 77 29.77 0.0
03 23:35 SE 7 7.00 Fair CLR 77.2 70.7 81% 79 29.76 0.0
03 23:15 SE 6 10.00 Fair CLR 78.3 70.7 78% 81 29.76 0.0
03 22:55 E 8 10.00 Fair CLR 79 70.7 76% 82 29.76 0.0
03 22:35 SE 9 10.00 Fair CLR 80.4 69.8 70% 84 29.76 0.0
03 22:15 E 8 10.00 Fair CLR 80.8 70.2 70% 84 29.76 0.0
03 21:55 E 7 10.00 Fair CLR 81.5 70 68% 85 29.76 0.0
03 21:35 E 8 10.00 Fair CLR 82 69.8 67% 86 29.75 0.0
03 21:15 E 10 10.00 Fair CLR 82.9 70 65% 87 29.75 0.0
03 20:55 E 10 10.00 Fair CLR 82.9 70 65% 87 29.75 0.0
03 20:35 NE 8 10.00 Fair CLR 81.1 71.1 72% 85 29.75 0.0
03 20:15 E 5 10.00 Partly Cloudy SCT090 82.9 71.6 69% 88 29.74 0.0
03 19:55 E 8 10.00 Partly Cloudy SCT090 83.8 71.6 67% 89 29.73 0.0
03 19:35 SE 6 10.00 Thunderstorm in Vicinity CLR 85.1 70.5 62% 90 29.73 0.0
03 19:15 E 6 10.00 Fair CLR 85.8 70.9 61% 91 29.73 0.0
03 18:55 E 6 10.00 Fair CLR 87.6 70.3 91.4 86.5 57% 93 29.73 0.0
03 18:35 SE 8 10.00 Fair CLR 88.9 69.1 52% 93 29.72 0.0
03 18:15 SE 9 10.00 Fair CLR 89.6 69.1 51% 94 29.72 0.0
03 17:55 SE 9 10.00 Fair CLR 90 69.1 50% 95 29.72 0.0
03 17:35 SE 12 10.00 Fair CLR 90.5 68.4 48% 95 29.71 0.0
03 17:15 S 15 10.00 Fair CLR 90.5 67.6 47% 94 29.71 0.0
03 16:55 S 15 10.00 Fair CLR 90.7 67.6 47% 94 29.72 0.0
03 16:15 SE 13 G 16 10.00 Fair CLR 90.9 67.5 46% 94 29.72 0.0
03 15:55 SE 13 G 16 10.00 Fair CLR 91.2 67.1 45% 95 29.71 0.0
03 15:35 SE 9 10.00 Fair CLR 90.9 66.6 45% 94 29.71 0.0
03 15:15 SE 12 10.00 Fair CLR 91 66.7 45% 94 29.72 0.0
03 14:55 S 12 G 18 10.00 Fair CLR 90.5 66.7 46% 94 29.72 0.0
03 14:35 SE 14 G 20 10.00 Fair CLR 90.3 66.7 46% 93 29.71 0.0
03 14:15 SE 13 G 20 10.00 Fair CLR 89.1 67.1 48% 92 29.71 0.0
03 13:55 SE 15 G 20 10.00 Fair CLR 88.2 66.6 49% 91 29.72 0.0
03 13:35 SE 15 10.00 Fair CLR 87.6 66.6 50% 90 29.74 0.0
03 13:15 SE 16 10.00 Fair CLR 87.3 66.2 50% 90 29.74 0.0
03 12:55 S 16 G 21 10.00 Fair CLR 87.1 66.6 87.1 68.7 51% 90 29.75 0.0
03 12:35 SE 15 10.00 Fair CLR 86 66.4 52% 88 29.75 0.0
03 12:15 SE 13 10.00 Fair CLR 84.6 65.5 53% 87 29.76 0.0
03 11:55 SE 10 10.00 Fair CLR 82.4 65.3 56% 84 29.77 0.0
03 11:35 S 13 10.00 Fair CLR 82.2 66 58% 84 29.77 0.0
03 11:15 SE 12 G 18 10.00 Fair CLR 81.7 65.5 58% 84 29.77 0.0
03 10:55 SE 12 G 17 10.00 Fair CLR 81.5 66.4 60% 84 29.77 0.0
03 10:35 SE 10 10.00 Fair CLR 77.9 65.5 66% 80 29.77 0.0
03 10:15 SE 14 G 18 10.00 Fair CLR 77.5 65.3 66% 79 29.77 0.0
03 09:55 SE 13 G 17 10.00 Fair CLR 77.7 65.8 67% 80 29.77 0.0
03 09:35 E 10 G 21 10.00 Fair CLR 76.1 65.5 70% 78 29.77 0.0
03 09:15 SE 15 10.00 Fair CLR 74.3 64.4 71% 29.78 0.0
03 08:55 E 14 G 18 10.00 Fair CLR 73 63.5 72% 29.78 0.0
03 08:35 E 12 G 20 10.00 Fair CLR 71.8 62.8 73% 29.78 0.0
03 08:15 E 13 10.00 Fair CLR 70.9 62.6 75% 29.79 0.0
03 07:55 E 13 G 17 10.00 Fair CLR 69.8 61.3 75% 29.79 0.0
03 07:35 E 13 10.00 Fair CLR 69.3 61.5 77% 29.79 0.0
03 07:15 E 13 10.00 Fair CLR 68.9 60.8 76% 29.8 0.0
03 06:55 E 14 10.00 Fair CLR 68.9 60.4 72.1 68.5 75% 29.8 0.0
03 06:35 E 12 10.00 Fair CLR 68.9 60.1 74% 29.81 0.0
03 06:15 E 10 10.00 Fair CLR 68.5 59.9 74% 29.81 0.0
03 05:55 E 10 10.00 Fair CLR 68.9 60.1 74% 29.82 0.0
03 05:35 E 10 10.00 Fair CLR 69.1 59.5 72% 29.81 0.0
03 05:15 E 9 G 17 10.00 Fair CLR 69.3 59.4 71% 29.81 0.0
03 04:55 E 10 G 17 10.00 Fair CLR 69.4 59 70% 29.81 0.0
03 04:35 E 10 10.00 Fair CLR 69.8 58.5 67% 29.82 0.0
03 04:15 E 9 10.00 Fair CLR 69.8 58.3 67% 29.82 0.0
03 03:55 E 10 10.00 Fair CLR 69.8 57.9 66% 29.82 0.0
03 03:35 E 10 10.00 Fair CLR 70.2 58.5 67% 29.82 0.0
03 03:15 E 13 10.00 Fair CLR 70.3 58.5 66% 29.82 0.0
03 02:55 E 9 10.00 Fair CLR 70.7 59 67% 29.83 0.0
03 02:35 E 9 10.00 Fair CLR 70.7 59.4 67% 29.84 0.0
03 02:15 E 10 10.00 Fair CLR 71.2 59.7 67% 29.84 0.0
03 01:55 E 12 10.00 Fair CLR 71.6 59 65% 29.85 0.0
03 01:35 E 13 10.00 Fair CLR 71.8 59.2 65% 29.85 0.0
03 01:15 E 13 10.00 Fair CLR 72 59.4 65% 29.85 0.0
03 00:55 E 13 G 20 10.00 Fair CLR 72.1 59.2 82.9 72.1 64% 29.85 0.0
03 00:35 E 13 10.00 Fair CLR 72.7 59.2 63% 29.85 0.0
03 00:15 E 9 10.00 Fair CLR 72.7 59.2 63% 29.86 0.0
02 23:55 E 8 10.00 Fair CLR 73 59 62% 29.86 0.0
02 23:35 E 8 10.00 Partly Cloudy SCT065 73.4 59 61% 29.87 0.0
02 23:15 E 8 10.00 Partly Cloudy SCT065 73.9 58.6 59% 29.87 0.0
02 22:55 E 8 10.00 Partly Cloudy SCT065 74.3 58.3 58% 29.87 0.0
02 22:35 E 9 10.00 Mostly Cloudy BKN065 74.7 58.1 56% 29.87 0.0
02 22:15 E 9 10.00 Mostly Cloudy BKN065 75.2 57.9 55% 78 29.88 0.0
02 21:55 E 9 10.00 Mostly Cloudy BKN065 75.6 58.3 55% 78 29.87 0.0
Date Time (cdt) Wind (mph) Vis. (mi.) Weather Sky Cond. Air Dwpt Max. Min. Relative Humidity Wind Chill (°F) Heat Index (°F) altimeter (in) sea level (mb) 1 hr 3 hr 6 hr
6 hour
Temperature (ºF) Pressure Precipitation (in)